Time;durP1;ratioP1;P1;durP2;ratioP2;P2;SDS_P1;SDS_P2;PMS_P1;PMS_P2;Temp;Humidity;BMP_temperature;BMP_pressure;BME280_temperature;BME280_humidity;BME280_pressure;Samples;Min_cycle;Max_cycle;Signal;HPM_P1;HPM_P2
2022/08/17 00:00:12;;;;;;;2.40;1.30;;;;;18.40;96904.20;;;;110733;1250;41666;-62
2022/08/17 00:03:04;;;;;;;3.10;1.40;;;;;18.30;96913.60;;;;110635;1250;41153;-63
2022/08/17 00:05:44;;;;;;;2.00;1.30;;;;;18.30;96913.60;;;;110791;1250;42307;-63
2022/08/17 00:08:17;;;;;;;3.50;1.50;;;;;18.30;96914.00;;;;110692;1250;41170;-62
2022/08/17 00:10:49;;;;;;;3.50;1.60;;;;;18.30;96922.60;;;;110747;1249;42939;-62
2022/08/17 00:13:24;;;;;;;4.00;1.70;;;;;18.28;96919.20;;;;110757;1249;41628;-63
2022/08/17 00:15:58;;;;;;;4.40;1.50;;;;;18.20;96927.80;;;;110720;1250;42184;-63
2022/08/17 00:18:29;;;;;;;3.40;1.60;;;;;18.10;96928.20;;;;110768;1250;41443;-63
2022/08/17 00:21:21;;;;;;;4.20;1.80;;;;;18.10;96926.20;;;;110755;1249;41534;-62
2022/08/17 00:23:54;;;;;;;4.80;1.70;;;;;18.02;96929.80;;;;110689;1249;41272;-62
2022/08/17 00:26:25;;;;;;;3.10;1.50;;;;;17.98;96930.80;;;;110662;1251;41746;-62
2022/08/17 00:29:13;;;;;;;4.30;1.90;;;;;17.90;96925.20;;;;110733;1249;41204;-62
2022/08/17 00:31:48;;;;;;;3.70;1.30;;;;;17.90;96926.00;;;;110717;1250;41341;-62
2022/08/17 00:34:18;;;;;;;;;;;;;17.80;96926.60;;;;110701;1250;41175;-61
2022/08/17 00:36:49;;;;;;;3.90;1.40;;;;;17.80;96918.00;;;;110678;1251;41305;-62
2022/08/17 00:39:19;;;;;;;3.80;1.70;;;;;17.80;96919.20;;;;110754;1251;41809;-62
2022/08/17 00:41:50;;;;;;;3.10;1.40;;;;;17.72;96911.80;;;;110655;1250;41633;-62
2022/08/17 00:44:20;;;;;;;2.60;1.50;;;;;17.70;96913.20;;;;110701;1249;41494;-62
2022/08/17 00:46:49;;;;;;;2.70;1.40;;;;;17.70;96910.20;;;;110834;1249;41722;-63
2022/08/17 00:49:22;;;;;;;3.40;1.60;;;;;17.70;96917.00;;;;110716;1249;41178;-61
2022/08/17 00:51:57;;;;;;;3.80;1.40;;;;;17.70;96926.20;;;;110601;1249;41271;-62
2022/08/17 00:54:30;;;;;;;4.00;1.70;;;;;17.68;96926.40;;;;110621;1249;41252;-62
2022/08/17 00:57:06;;;;;;;4.80;1.80;;;;;17.60;96926.20;;;;110860;1247;41138;-62
2022/08/17 00:59:39;;;;;;;4.10;1.70;;;;;17.50;96931.40;;;;110932;1250;42343;-62
2022/08/17 01:02:12;;;;;;;4.50;1.90;;;;;17.40;96928.60;;;;110909;1250;41224;-61
2022/08/17 01:04:44;;;;;;;7.70;2.20;;;;;17.24;96926.40;;;;110877;1249;41131;-62
2022/08/17 01:07:14;;;;;;;12.90;2.60;;;;;17.10;96926.00;;;;110875;1249;41128;-62
2022/08/17 01:09:44;;;;;;;5.50;2.10;;;;;17.10;96929.60;;;;110614;1249;41162;-62
2022/08/17 01:12:14;;;;;;;5.10;2.20;;;;;17.00;96927.00;;;;110591;1249;41268;-62
2022/08/17 01:14:44;;;;;;;7.50;2.20;;;;;17.00;96928.00;;;;110598;1249;41526;-61
2022/08/17 01:17:14;;;;;;;4.30;1.80;;;;;17.00;96933.20;;;;110682;1251;41734;-62
2022/08/17 01:19:45;;;;;;;4.00;1.90;;;;;17.00;96937.60;;;;110663;1250;41157;-62
2022/08/17 01:22:25;;;;;;;5.20;2.10;;;;;17.00;96934.80;;;;110740;1249;41152;-61
2022/08/17 01:25:00;;;;;;;5.10;1.80;;;;;17.00;96935.80;;;;110722;1250;41582;-61
2022/08/17 01:27:30;;;;;;;4.50;1.60;;;;;17.08;96933.80;;;;110967;1247;41150;-62
2022/08/17 01:30:01;;;;;;;;;;;;;17.10;96930.60;;;;110708;1249;42382;-62
2022/08/17 01:32:30;;;;;;;4.90;2.10;;;;;16.98;96931.60;;;;110792;1250;41158;-62
2022/08/17 01:35:00;;;;;;;3.10;1.80;;;;;16.90;96927.80;;;;110989;1250;41947;-62
2022/08/17 01:37:40;;;;;;;5.30;1.70;;;;;16.90;96932.60;;;;110806;1249;41655;-62
2022/08/17 01:40:21;;;;;;;4.30;1.70;;;;;16.90;96927.00;;;;110696;1250;41611;-62
2022/08/17 01:43:06;;;;;;;3.60;1.60;;;;;16.90;96926.00;;;;110755;1249;42047;-63
2022/08/17 01:45:44;;;;;;;2.20;1.40;;;;;16.90;96924.80;;;;110907;1250;41715;-62
2022/08/17 01:48:15;;;;;;;4.20;1.80;;;;;16.90;96920.20;;;;111115;1250;41434;-62
2022/08/17 01:50:48;;;;;;;4.80;1.80;;;;;16.90;96919.20;;;;110987;1250;41509;-61
2022/08/17 01:53:27;;;;;;;3.00;1.60;;;;;16.90;96922.80;;;;110930;1249;41846;-61
2022/08/17 01:56:10;;;;;;;3.40;1.70;;;;;16.90;96923.60;;;;110635;1252;41753;-61
2022/08/17 01:58:42;;;;;;;3.80;1.80;;;;;16.90;96925.20;;;;110807;1251;41610;-62
2022/08/17 02:01:21;;;;;;;3.40;1.70;;;;;16.88;96923.40;;;;110818;1252;41668;-62
2022/08/17 02:03:52;;;;;;;6.10;1.60;;;;;16.88;96924.20;;;;110728;1251;41261;-62
2022/08/17 02:06:30;;;;;;;3.90;1.70;;;;;16.90;96926.60;;;;110606;1252;41910;-61
2022/08/17 02:09:25;;;;;;;2.10;1.40;;;;;16.90;96918.20;;;;110656;1252;41473;-62
2022/08/17 02:11:59;;;;;;;3.10;1.60;;;;;16.80;96912.60;;;;110634;1251;41162;-62
2022/08/17 02:14:50;;;;;;;2.50;1.60;;;;;16.80;96912.40;;;;110656;1252;41268;-61
2022/08/17 02:17:21;;;;;;;3.50;1.50;;;;;16.80;96905.40;;;;110756;1251;41549;-61
2022/08/17 02:19:50;;;;;;;3.90;1.80;;;;;16.80;96908.00;;;;110632;1252;41159;-62
2022/08/17 02:22:24;;;;;;;4.40;1.50;;;;;16.80;96911.40;;;;110636;1251;41156;-61
2022/08/17 02:24:55;;;;;;;4.30;1.70;;;;;16.80;96905.80;;;;110638;1252;41258;-62
2022/08/17 02:27:30;;;;;;;2.90;1.60;;;;;16.74;96909.20;;;;110603;1251;41718;-63
2022/08/17 02:30:01;;;;;;;3.20;1.60;;;;;16.70;96908.60;;;;110603;1251;41155;-61
2022/08/17 02:32:31;;;;;;;2.30;1.50;;;;;16.70;96910.00;;;;110671;1252;41143;-61
2022/08/17 02:35:01;;;;;;;2.90;1.40;;;;;16.70;96910.00;;;;110672;1252;41155;-62
2022/08/17 02:37:31;;;;;;;3.20;1.60;;;;;16.70;96909.00;;;;111053;1252;41145;-62
2022/08/17 02:40:01;;;;;;;1.90;1.20;;;;;16.66;96912.80;;;;110982;1252;41138;-62
2022/08/17 02:42:42;;;;;;;2.70;1.40;;;;;16.60;96910.40;;;;110769;1251;41467;-62
2022/08/17 02:45:17;;;;;;;3.50;1.50;;;;;16.60;96916.00;;;;110680;1252;41395;-61
2022/08/17 02:47:49;;;;;;;2.30;1.30;;;;;16.60;96916.60;;;;110937;1251;41133;-61
2022/08/17 02:50:21;;;;;;;2.50;1.40;;;;;16.60;96916.20;;;;110881;1252;41245;-62
2022/08/17 02:52:53;;;;;;;2.90;1.40;;;;;16.60;96920.00;;;;110647;1251;41146;-61
2022/08/17 02:55:37;;;;;;;2.60;1.40;;;;;16.60;96924.00;;;;110724;1250;41420;-62
2022/08/17 02:58:09;;;;;;;5.10;1.70;;;;;16.60;96926.00;;;;111054;1249;41188;-61
2022/08/17 03:00:42;;;;;;;3.80;1.70;;;;;16.60;96924.40;;;;111139;1250;42682;-62
2022/08/17 03:03:17;;;;;;;4.30;2.00;;;;;16.60;96925.20;;;;110837;1251;41638;-61
2022/08/17 03:05:50;;;;;;;5.40;1.90;;;;;16.50;96925.40;;;;111022;1250;41541;-62
2022/08/17 03:08:22;;;;;;;3.70;1.80;;;;;16.50;96931.00;;;;111017;1249;41146;-61
2022/08/17 03:10:52;;;;;;;5.80;1.70;;;;;16.50;96934.00;;;;111052;1250;41617;-62
2022/08/17 03:13:22;;;;;;;;;;;;;16.50;96937.60;;;;110982;1250;41888;-61
2022/08/17 03:15:52;;;;;;;2.90;1.50;;;;;16.40;96936.80;;;;110993;1248;42873;-62
2022/08/17 03:18:24;;;;;;;2.30;1.40;;;;;16.48;96936.40;;;;111004;1249;41614;-62
2022/08/17 03:20:58;;;;;;;4.40;1.70;;;;;16.44;96936.40;;;;110992;1248;41619;-62
2022/08/17 03:23:28;;;;;;;3.50;1.50;;;;;16.48;96933.80;;;;111054;1248;41157;-62
2022/08/17 03:25:58;;;;;;;4.10;1.50;;;;;16.50;96935.40;;;;111148;1250;41610;-62
2022/08/17 03:28:28;;;;;;;2.10;1.40;;;;;16.50;96939.80;;;;111241;1250;41130;-62
2022/08/17 03:30:58;;;;;;;2.90;1.60;;;;;16.50;96938.00;;;;110901;1250;41893;-62
2022/08/17 03:33:29;;;;;;;3.40;1.60;;;;;16.50;96940.00;;;;110995;1249;42156;-62
2022/08/17 03:35:59;;;;;;;2.60;1.50;;;;;16.50;96940.60;;;;111067;1249;41274;-62
2022/08/17 03:38:28;;;;;;;2.60;1.40;;;;;16.60;96944.20;;;;111171;1248;41153;-63
2022/08/17 03:41:00;;;;;;;4.00;1.60;;;;;16.60;96943.20;;;;111136;1249;41153;-63
2022/08/17 03:43:31;;;;;;;3.40;1.50;;;;;16.70;96938.60;;;;111084;1250;41820;-63
2022/08/17 03:57:35;;;;;;;2.10;1.40;;;;;16.90;96944.60;;;;110702;1251;41204;-64
2022/08/17 04:00:05;;;;;;;7.90;2.30;;;;;16.98;96944.40;;;;110911;1249;42247;-62
2022/08/17 04:02:41;;;;;;;3.10;1.60;;;;;17.00;96944.60;;;;110759;1251;41163;-62
2022/08/17 04:05:11;;;;;;;3.30;1.50;;;;;17.06;96941.80;;;;110818;1252;41813;-62
2022/08/17 04:07:40;;;;;;;2.30;1.40;;;;;17.10;96939.60;;;;110727;1251;41174;-62
2022/08/17 04:10:09;;;;;;;3.30;1.60;;;;;17.12;96928.60;;;;110757;1252;41515;-61
2022/08/17 04:12:47;;;;;;;2.30;1.40;;;;;17.26;96866.60;;;;110780;1251;41274;-62
2022/08/17 04:15:17;;;;;;;3.20;1.40;;;;;17.60;96885.80;;;;110896;1249;41262;-63
2022/08/17 04:17:47;;;;;;;5.00;1.40;;;;;17.90;96939.00;;;;110877;1251;41326;-62
2022/08/17 04:20:19;;;;;;;3.20;1.50;;;;;17.98;96886.20;;;;110780;1252;41997;-62
2022/08/17 04:23:08;;;;;;;3.50;1.60;;;;;18.10;96941.80;;;;110654;1250;41147;-63
2022/08/17 04:25:41;;;;;;;3.10;1.50;;;;;18.10;96949.40;;;;110677;1252;41280;-61
2022/08/17 04:28:11;;;;;;;3.90;1.90;;;;;18.00;96952.20;;;;110714;1251;41267;-62
2022/08/17 04:30:44;;;;;;;4.40;1.80;;;;;17.90;96954.60;;;;110723;1251;41957;-62
2022/08/17 04:33:25;;;;;;;5.90;2.00;;;;;17.80;96958.40;;;;110663;1251;42026;-62
2022/08/17 04:36:01;;;;;;;;;;;;;17.66;96958.20;;;;110715;1249;41158;-62
2022/08/17 04:38:33;;;;;;;6.30;2.10;;;;;17.50;96961.20;;;;110720;1252;41537;-62
2022/08/17 04:43:54;;;;;;;4.00;1.60;;;;;17.40;96961.00;;;;110773;1251;42804;-62
2022/08/17 04:46:27;;;;;;;5.40;1.80;;;;;17.40;96965.80;;;;110785;1251;41916;-62
2022/08/17 04:48:56;;;;;;;3.70;1.60;;;;;17.68;96941.40;;;;110981;1251;42125;-63
2022/08/17 04:51:28;;;;;;;3.50;1.70;;;;;18.44;96937.20;;;;110883;1252;41270;-62
2022/08/17 04:54:01;;;;;;;7.30;2.10;;;;;18.96;96954.40;;;;109496;1251;1617345;-61
2022/08/17 04:56:30;;;;;;;2.70;1.50;;;;;19.10;96958.80;;;;110725;1252;41188;-62
2022/08/17 04:59:07;;;;;;;3.20;1.60;;;;;19.10;96962.60;;;;110848;1251;41157;-61
2022/08/17 05:01:38;;;;;;;3.60;1.70;;;;;19.02;96966.20;;;;110766;1250;42024;-61
2022/08/17 05:04:10;;;;;;;4.20;2.00;;;;;19.00;96966.80;;;;110852;1251;41637;-61
2022/08/17 05:07:00;;;;;;;5.40;2.10;;;;;18.90;96962.20;;;;110774;1250;41142;-61
2022/08/17 05:09:28;;;;;;;6.70;2.00;;;;;18.90;96960.00;;;;110873;1251;41155;-63
2022/08/17 05:12:01;;;;;;;7.00;2.20;;;;;18.80;96959.80;;;;110941;1250;41160;-63
2022/08/17 05:14:30;;;;;;;5.80;1.80;;;;;18.70;96953.00;;;;110938;1250;41309;-62
2022/08/17 05:17:00;;;;;;;3.50;1.70;;;;;18.90;96948.80;;;;110939;1250;41323;-62
2022/08/17 05:19:36;;;;;;;4.70;2.10;;;;;19.22;96931.00;;;;110875;1249;41160;-61
2022/08/17 05:22:05;;;;;;;2.60;1.50;;;;;19.92;96943.00;;;;110854;1249;41415;-62
2022/08/17 05:24:35;;;;;;;7.30;2.40;;;;;20.30;96954.20;;;;110892;1251;41499;-63
2022/08/17 05:27:06;;;;;;;4.60;1.70;;;;;20.30;96955.00;;;;110796;1250;41258;-61
2022/08/17 05:29:36;;;;;;;4.10;1.90;;;;;20.20;96957.60;;;;110681;1250;41719;-62
2022/08/17 05:32:11;;;;;;;5.10;2.00;;;;;20.02;96959.20;;;;110839;1250;41697;-62
2022/08/17 05:35:00;;;;;;;2.80;1.50;;;;;19.90;96969.80;;;;110997;1250;41740;-63
2022/08/17 05:37:29;;;;;;;4.50;1.50;;;;;19.80;96972.80;;;;111035;1249;41142;-62
2022/08/17 05:39:57;;;;;;;4.50;1.50;;;;;19.80;96975.00;;;;111000;1250;41306;-60
2022/08/17 05:42:26;;;;;;;3.20;1.40;;;;;19.80;96979.20;;;;110663;1250;41429;-61
2022/08/17 05:44:58;;;;;;;2.30;1.40;;;;;19.88;96976.40;;;;110784;1250;41862;-61
2022/08/17 05:47:27;;;;;;;2.50;1.50;;;;;19.90;96976.80;;;;110730;1251;41759;-61
2022/08/17 05:49:56;;;;;;;2.40;1.50;;;;;19.90;96979.40;;;;110690;1250;41597;-61
2022/08/17 05:52:43;;;;;;;3.20;1.50;;;;;20.00;96983.40;;;;110747;1250;41431;-62
2022/08/17 05:55:23;;;;;;;3.50;1.40;;;;;20.00;96982.20;;;;110622;1251;41154;-61
2022/08/17 05:58:14;;;;;;;5.60;1.40;;;;;20.00;96982.60;;;;110791;1252;41193;-61
2022/08/17 06:00:49;;;;;;;;;;;;;20.04;96982.80;;;;110707;1250;41149;-61
2022/08/17 06:03:38;;;;;;;4.60;1.60;;;;;20.10;96986.80;;;;110720;1249;41708;-61
2022/08/17 06:06:25;;;;;;;4.80;1.50;;;;;20.20;96989.40;;;;110678;1250;41348;-62
2022/08/17 06:09:09;;;;;;;3.40;1.40;;;;;20.30;96986.60;;;;110690;1249;41139;-60
2022/08/17 06:11:54;;;;;;;2.70;1.50;;;;;20.40;96989.20;;;;110601;1252;41652;-61
2022/08/17 06:14:44;;;;;;;2.80;1.50;;;;;20.54;96986.80;;;;110656;1249;41140;-61
2022/08/17 06:17:16;;;;;;;2.20;1.40;;;;;20.90;96989.60;;;;110711;1250;41156;-61
2022/08/17 06:19:58;;;;;;;6.10;1.40;;;;;21.20;96991.20;;;;110773;1251;41616;-61
2022/08/17 06:22:33;;;;;;;2.60;1.40;;;;;21.50;96984.80;;;;110720;1250;41129;-61
2022/08/17 06:25:13;;;;;;;2.10;1.40;;;;;21.78;96984.20;;;;110593;1251;41153;-61
2022/08/17 06:27:54;;;;;;;1.50;1.10;;;;;21.92;96986.20;;;;110674;1250;41680;-61
2022/08/17 06:30:26;;;;;;;3.90;1.60;;;;;22.20;96984.60;;;;110610;1251;41194;-61
2022/08/17 06:33:00;;;;;;;2.60;1.40;;;;;22.40;96984.00;;;;110928;1251;41177;-61
2022/08/17 06:35:29;;;;;;;3.60;1.70;;;;;22.50;96983.20;;;;110906;1250;41157;-61
2022/08/17 06:37:59;;;;;;;;;;;;;22.72;96977.80;;;;110801;1250;41582;-60
2022/08/17 06:40:46;;;;;;;3.00;1.50;;;;;23.20;96969.80;;;;110593;1251;41481;-61
2022/08/17 06:43:39;;;;;;;3.10;1.60;;;;;23.80;96972.80;;;;110745;1251;42273;-61
2022/08/17 06:46:24;;;;;;;3.30;1.70;;;;;24.10;96973.80;;;;110675;1251;41970;-60
2022/08/17 06:49:06;;;;;;;3.20;1.70;;;;;24.48;96966.80;;;;110698;1250;41668;-62
2022/08/17 06:51:45;;;;;;;3.50;1.60;;;;;25.42;96968.40;;;;110721;1250;41169;-61
2022/08/17 06:54:16;;;;;;;3.30;1.60;;;;;26.20;96966.40;;;;110813;1250;40923;-63
2022/08/17 06:57:01;;;;;;;3.10;1.60;;;;;26.82;96965.80;;;;110831;1251;42012;-60
2022/08/17 06:59:53;;;;;;;3.70;1.70;;;;;27.42;96967.20;;;;110626;1249;41263;-62
2022/08/17 07:02:44;;;;;;;3.50;1.70;;;;;28.46;96961.20;;;;110820;1252;41161;-62
2022/08/17 07:05:24;;;;;;;3.00;1.50;;;;;29.02;96958.80;;;;110822;1251;41142;-60
2022/08/17 07:08:10;;;;;;;4.00;1.70;;;;;29.92;96959.40;;;;110718;1252;41157;-61
2022/08/17 07:10:47;;;;;;;4.80;1.90;;;;;30.92;96957.80;;;;110712;1251;41140;-60
2022/08/17 07:13:18;;;;;;;4.10;1.70;;;;;31.50;96959.60;;;;110700;1252;41261;-60
2022/08/17 07:15:49;;;;;;;3.60;1.70;;;;;31.60;96958.80;;;;110738;1251;42427;-60
2022/08/17 07:18:25;;;;;;;5.20;1.80;;;;;31.80;96966.60;;;;110612;1252;41627;-60
2022/08/17 07:20:57;;;;;;;4.00;1.70;;;;;31.48;96967.60;;;;110605;1252;41268;-60
2022/08/17 07:23:55;;;;;;;5.20;1.90;;;;;31.02;96971.20;;;;110660;1252;41276;-61
2022/08/17 07:26:24;;;;;;;5.10;1.90;;;;;30.60;96971.80;;;;110669;1252;41916;-61
2022/08/17 07:28:57;;;;;;;6.60;2.50;;;;;29.96;96976.20;;;;110680;1252;41179;-62
2022/08/17 07:31:29;;;;;;;5.50;2.30;;;;;29.58;96973.40;;;;110639;1252;41601;-60
2022/08/17 07:34:13;;;;;;;6.70;2.10;;;;;29.50;96974.40;;;;110696;1251;42435;-61
2022/08/17 07:36:41;;;;;;;6.50;2.50;;;;;29.50;96973.20;;;;110763;1251;41148;-60
2022/08/17 07:39:11;;;;;;;7.30;3.30;;;;;30.00;96969.40;;;;110626;1251;41273;-61
2022/08/17 07:41:40;;;;;;;7.50;3.00;;;;;29.60;96970.00;;;;110744;1252;41259;-62
2022/08/17 07:44:25;;;;;;;6.80;2.20;;;;;29.30;96968.80;;;;110564;1251;41284;-61
2022/08/17 07:49:45;;;;;;;6.10;2.40;;;;;29.18;96967.40;;;;110589;1251;41182;-61
2022/08/17 07:52:29;;;;;;;7.20;3.00;;;;;29.12;96972.60;;;;110824;1251;41606;-63
2022/08/17 07:55:30;;;;;;;8.00;2.80;;;;;29.22;96969.20;;;;110669;1251;41146;-63
2022/08/17 07:57:59;;;;;;;8.30;2.70;;;;;28.62;96976.20;;;;110759;1250;41272;-61
2022/08/17 08:00:28;;;;;;;6.70;2.60;;;;;28.40;96987.60;;;;110787;1251;41154;-62
2022/08/17 08:03:13;;;;;;;6.60;2.50;;;;;28.06;96982.20;;;;110742;1251;41172;-61
2022/08/17 08:06:00;;;;;;;7.20;2.80;;;;;29.14;96974.40;;;;110826;1251;41664;-61
2022/08/17 08:08:35;;;;;;;12.80;3.10;;;;;30.26;96971.00;;;;110986;1248;41460;-60
2022/08/17 08:11:10;;;;;;;5.40;2.20;;;;;31.18;96959.60;;;;110789;1248;41152;-61
2022/08/17 08:13:42;;;;;;;6.00;2.50;;;;;32.32;96955.00;;;;110686;1249;41536;-61
2022/08/17 08:16:23;;;;;;;7.40;2.70;;;;;32.80;96966.40;;;;110774;1250;41265;-62
2022/08/17 08:18:57;;;;;;;10.80;2.80;;;;;32.50;96966.20;;;;110717;1250;41899;-60
2022/08/17 08:21:32;;;;;;;8.00;3.10;;;;;32.30;96966.40;;;;110802;1248;41151;-62
2022/08/17 08:24:03;;;;;;;5.30;2.30;;;;;31.90;96969.20;;;;110977;1248;41950;-62
2022/08/17 08:26:55;;;;;;;8.40;2.50;;;;;31.60;96968.20;;;;110868;1248;42091;-63
2022/08/17 08:29:42;;;;;;;5.80;2.20;;;;;31.40;96972.20;;;;110864;1250;41950;-62
2022/08/17 08:32:29;;;;;;;6.50;2.60;;;;;31.40;96974.40;;;;110804;1249;41235;-62
2022/08/17 08:35:04;;;;;;;11.40;2.20;;;;;31.30;96981.40;;;;110941;1250;41134;-62
2022/08/17 08:37:51;;;;;;;6.80;2.50;;;;;31.14;96981.20;;;;110793;1251;41178;-61
2022/08/17 08:40:34;;;;;;;6.90;2.50;;;;;30.82;96984.60;;;;110833;1248;41174;-61
2022/08/17 08:43:21;;;;;;;5.60;2.40;;;;;30.32;96980.80;;;;111020;1250;41500;-61
2022/08/17 08:46:15;;;;;;;6.10;2.30;;;;;30.20;96977.80;;;;110998;1248;41155;-61
2022/08/17 08:49:08;;;;;;;7.70;2.50;;;;;31.14;96969.40;;;;110964;1248;41656;-61
2022/08/17 08:51:51;;;;;;;7.50;2.50;;;;;32.10;96972.80;;;;110635;1251;41591;-61
2022/08/17 08:54:34;;;;;;;6.30;2.50;;;;;32.92;96972.80;;;;110644;1251;41194;-61
2022/08/17 08:57:17;;;;;;;6.20;2.30;;;;;33.20;96974.00;;;;110969;1249;41154;-61
2022/08/17 09:00:17;;;;;;;7.50;2.20;;;;;33.00;96974.80;;;;110820;1250;41138;-60
2022/08/17 09:02:55;;;;;;;6.40;2.70;;;;;33.00;96975.60;;;;111067;1250;42406;-62
2022/08/17 09:05:57;;;;;;;7.60;3.10;;;;;33.00;96974.40;;;;110966;1250;41269;-63
2022/08/17 09:08:28;;;;;;;5.50;2.40;;;;;33.00;96977.20;;;;110522;1251;41174;-62
2022/08/17 09:11:16;;;;;;;6.50;2.30;;;;;33.20;96979.00;;;;110967;1249;42386;-62
2022/08/17 09:13:54;;;;;;;6.00;2.40;;;;;33.48;96974.40;;;;110837;1250;41157;-61
2022/08/17 09:16:34;;;;;;;7.70;2.80;;;;;33.90;96973.60;;;;110841;1249;41451;-61
2022/08/17 09:19:38;;;;;;;5.40;2.30;;;;;33.84;96974.20;;;;110651;1251;42259;-61
2022/08/17 09:22:30;;;;;;;6.80;2.50;;;;;33.90;96975.00;;;;110489;1251;41121;-62
2022/08/17 09:25:02;;;;;;;8.20;2.70;;;;;34.20;96967.20;;;;111031;1250;41315;-61
2022/08/17 09:27:46;;;;;;;6.70;2.40;;;;;34.22;96969.80;;;;110796;1251;41161;-62
2022/08/17 09:30:17;;;;;;;7.00;2.70;;;;;34.40;96976.80;;;;110864;1250;41188;-62
2022/08/17 09:32:54;;;;;;;6.30;2.60;;;;;34.60;96981.20;;;;110717;1249;42061;-62
2022/08/17 09:35:28;;;;;;;6.40;2.80;;;;;34.70;96979.00;;;;110979;1247;41179;-62
2022/08/17 09:38:15;;;;;;;6.60;2.70;;;;;34.50;96982.60;;;;110911;1249;41766;-62
2022/08/17 09:40:53;;;;;;;6.90;2.50;;;;;34.08;96989.40;;;;110977;1250;41900;-63
2022/08/17 09:43:31;;;;;;;7.00;2.80;;;;;33.64;96989.40;;;;110919;1250;42982;-63
2022/08/17 09:46:07;;;;;;;6.90;2.70;;;;;33.06;96992.40;;;;110834;1248;41259;-63
2022/08/17 09:49:02;;;;;;;7.00;2.50;;;;;32.70;96997.20;;;;110778;1250;41949;-62
2022/08/17 09:51:39;;;;;;;10.00;3.00;;;;;32.50;96997.60;;;;110979;1247;42244;-63
2022/08/17 09:54:17;;;;;;;6.80;2.50;;;;;32.14;97005.40;;;;110584;1251;41144;-62
2022/08/17 09:57:26;;;;;;;7.10;2.80;;;;;31.60;97010.40;;;;110778;1251;41154;-62
2022/08/17 09:59:58;;;;;;;6.50;2.80;;;;;31.32;97015.80;;;;110862;1250;41246;-63
2022/08/17 10:02:35;;;;;;;5.50;2.20;;;;;31.10;97013.40;;;;110874;1250;41226;-62
2022/08/17 10:05:08;;;;;;;5.30;2.20;;;;;31.28;97015.00;;;;111283;1250;42279;-63
2022/08/17 10:07:45;;;;;;;7.00;2.60;;;;;31.32;97012.00;;;;110993;1249;41228;-63
2022/08/17 10:10:30;;;;;;;6.50;2.60;;;;;31.50;97009.80;;;;110943;1250;41145;-64
2022/08/17 10:13:06;;;;;;;7.00;2.60;;;;;31.60;97003.80;;;;110895;1249;41134;-64
2022/08/17 10:15:39;;;;;;;6.30;2.40;;;;;31.40;97007.60;;;;111076;1247;41140;-63
2022/08/17 10:18:25;;;;;;;9.50;2.90;;;;;31.20;97010.20;;;;110858;1250;42072;-63
2022/08/17 10:26:53;;;;;;;6.00;2.50;;;;;31.36;96994.80;;;;110894;1250;41260;-64
2022/08/17 10:29:30;;;;;;;6.60;2.60;;;;;31.60;96997.00;;;;110893;1251;41158;-64
2022/08/17 10:32:03;;;;;;;6.50;2.50;;;;;31.80;96994.80;;;;111044;1250;41256;-63
2022/08/17 10:34:58;;;;;;;8.00;3.20;;;;;32.08;96992.40;;;;111130;1248;41606;-63
2022/08/17 10:37:36;;;;;;;7.10;3.30;;;;;32.70;96980.20;;;;111113;1248;41160;-63
2022/08/17 10:40:39;;;;;;;7.70;3.10;;;;;32.82;96984.20;;;;111026;1248;41247;-63
2022/08/17 10:43:19;;;;;;;9.00;3.00;;;;;33.02;96982.00;;;;110939;1248;41170;-63
2022/08/17 10:46:02;;;;;;;6.50;2.60;;;;;33.68;96977.40;;;;110838;1250;41160;-64
2022/08/17 10:49:15;;;;;;;7.60;3.10;;;;;34.20;96980.60;;;;110979;1247;41262;-64
2022/08/17 10:51:53;;;;;;;7.00;2.80;;;;;34.30;96973.20;;;;111034;1249;42177;-64
2022/08/17 10:54:51;;;;;;;7.10;3.20;;;;;34.00;96977.20;;;;110925;1250;41148;-64
2022/08/17 10:57:26;;;;;;;9.10;3.40;;;;;34.22;96971.80;;;;110924;1247;42000;-64
2022/08/17 10:59:56;;;;;;;7.70;3.20;;;;;33.92;96970.20;;;;111195;1250;41149;-64
2022/08/17 11:02:30;;;;;;;7.10;3.00;;;;;33.82;96967.20;;;;110973;1248;41611;-63
2022/08/17 11:04:58;;;;;;;7.90;3.10;;;;;33.72;96967.40;;;;110807;1250;41557;-63
2022/08/17 11:07:42;;;;;;;9.00;2.90;;;;;33.44;96965.00;;;;111002;1248;42425;-62
2022/08/17 11:10:42;;;;;;;9.20;3.20;;;;;33.76;96968.00;;;;111080;1249;41602;-64
2022/08/17 11:13:47;;;;;;;8.10;3.20;;;;;34.20;96964.40;;;;111157;1250;41398;-64
2022/08/17 11:16:34;;;;;;;9.00;3.50;;;;;35.02;96962.60;;;;110821;1250;41197;-63
2022/08/17 11:19:29;;;;;;;7.00;2.70;;;;;35.24;96956.80;;;;111068;1248;41188;-63
2022/08/17 11:22:18;;;;;;;6.70;2.80;;;;;35.74;96957.60;;;;110733;1250;41318;-63
2022/08/17 11:24:50;;;;;;;;;;;;;36.50;96949.80;;;;110958;1251;42033;-63
2022/08/17 11:27:25;;;;;;;8.10;3.00;;;;;37.54;96944.40;;;;110864;1248;41256;-63
2022/08/17 11:30:03;;;;;;;7.80;2.80;;;;;37.60;96949.00;;;;110889;1249;42345;-63
2022/08/17 11:32:41;;;;;;;9.90;3.50;;;;;36.84;96951.20;;;;110993;1250;42454;-65
2022/08/17 11:35:21;;;;;;;7.20;2.80;;;;;36.44;96944.40;;;;111049;1247;41921;-64
2022/08/17 11:38:04;;;;;;;6.10;2.60;;;;;36.50;96952.40;;;;111045;1248;41250;-64
2022/08/17 11:40:35;;;;;;;7.10;3.10;;;;;36.40;96943.40;;;;110879;1250;41139;-63
2022/08/17 11:43:26;;;;;;;5.50;2.30;;;;;35.66;96947.60;;;;110885;1247;41730;-64
2022/08/17 11:46:02;;;;;;;7.00;3.00;;;;;35.56;96943.80;;;;110902;1250;41168;-63
2022/08/17 11:51:53;;;;;;;7.10;3.10;;;;;36.40;96940.20;;;;110977;1248;41723;-64
2022/08/17 11:54:46;;;;;;;9.10;2.80;;;;;36.52;96936.40;;;;111021;1247;41147;-64
2022/08/17 11:57:30;;;;;;;9.60;3.20;;;;;37.32;96928.20;;;;110657;1250;41191;-64
2022/08/17 12:00:10;;;;;;;7.00;2.80;;;;;37.82;96926.20;;;;110918;1250;41256;-63
2022/08/17 12:02:43;;;;;;;5.40;2.40;;;;;38.24;96917.60;;;;110986;1248;41130;-63
2022/08/17 12:05:15;;;;;;;7.80;2.90;;;;;38.50;96930.40;;;;111052;1248;41184;-64
2022/08/17 12:07:51;;;;;;;6.90;2.70;;;;;38.60;96922.60;;;;110849;1248;41166;-64
2022/08/17 12:10:30;;;;;;;7.40;3.00;;;;;38.40;96920.80;;;;110835;1251;41266;-64
2022/08/17 12:13:09;;;;;;;7.20;2.50;;;;;38.30;96920.80;;;;111051;1249;41255;-64
2022/08/17 12:15:43;;;;;;;6.80;2.80;;;;;38.44;96922.20;;;;110830;1251;41161;-64
2022/08/17 12:18:27;;;;;;;8.00;2.90;;;;;38.80;96916.20;;;;111120;1250;41158;-64
2022/08/17 12:21:08;;;;;;;9.70;3.30;;;;;39.30;96914.00;;;;111031;1248;41144;-64
2022/08/17 12:24:05;;;;;;;7.50;2.80;;;;;39.10;96914.60;;;;110951;1250;41227;-64
2022/08/17 12:26:35;;;;;;;6.90;2.70;;;;;39.20;96912.00;;;;110894;1247;41264;-62
2022/08/17 12:29:10;;;;;;;7.50;2.70;;;;;39.20;96910.80;;;;111078;1245;41147;-64
2022/08/17 12:31:48;;;;;;;12.00;3.20;;;;;39.30;96918.20;;;;111086;1248;42360;-65
2022/08/17 12:34:46;;;;;;;8.00;3.30;;;;;38.52;96921.20;;;;110934;1248;41264;-63
2022/08/17 12:37:21;;;;;;;7.60;2.80;;;;;38.12;96913.80;;;;111073;1250;41169;-64
2022/08/17 12:39:56;;;;;;;8.20;3.10;;;;;37.80;96918.00;;;;111072;1247;41149;-64
2022/08/17 12:42:30;;;;;;;6.40;2.60;;;;;37.62;96917.00;;;;111047;1247;41973;-63
2022/08/17 12:44:59;;;;;;;8.80;2.80;;;;;37.88;96918.20;;;;110994;1247;41608;-65
2022/08/17 12:47:30;;;;;;;8.70;3.40;;;;;38.20;96921.80;;;;110687;1251;41994;-63
2022/08/17 12:50:11;;;;;;;6.50;2.60;;;;;37.90;96925.40;;;;110765;1250;42188;-65
2022/08/17 12:52:56;;;;;;;8.50;2.70;;;;;37.70;96925.60;;;;110799;1250;41203;-63
2022/08/17 12:55:35;;;;;;;9.50;2.70;;;;;37.30;96927.80;;;;110919;1249;41167;-63
2022/08/17 12:58:04;;;;;;;6.20;2.60;;;;;37.20;96928.40;;;;110902;1250;41155;-64
2022/08/17 13:00:36;;;;;;;4.90;2.20;;;;;36.62;96929.40;;;;110885;1250;41950;-64
2022/08/17 13:03:34;;;;;;;9.20;3.20;;;;;36.20;96924.60;;;;111144;1248;41181;-64
2022/08/17 13:06:07;;;;;;;8.60;3.30;;;;;35.60;96926.60;;;;110922;1248;41281;-64
2022/08/17 13:08:41;;;;;;;7.10;2.80;;;;;34.90;96935.00;;;;111027;1248;41720;-64
2022/08/17 13:11:13;;;;;;;6.80;2.70;;;;;34.60;96933.60;;;;111144;1247;40884;-64
2022/08/17 13:13:45;;;;;;;7.50;2.80;;;;;34.30;96935.60;;;;111109;1248;41479;-65
2022/08/17 13:16:15;;;;;;;7.90;3.10;;;;;34.20;96935.20;;;;111047;1247;41143;-64
2022/08/17 13:18:50;;;;;;;7.20;2.70;;;;;33.90;96939.40;;;;111112;1248;41552;-64
2022/08/17 13:21:18;;;;;;;7.00;3.10;;;;;33.70;96941.60;;;;111040;1250;41164;-64
2022/08/17 13:24:02;;;;;;;8.10;2.90;;;;;33.50;96942.40;;;;111040;1248;41151;-64